sensor_id;sensor_type;location;lat;lon;timestamp;P1;durP1;ratioP1;P2;durP2;ratioP2
18695;SDS011;22617;43.690;27.956;2023-05-10T00:01:16;9.67;;;5.83;;
18695;SDS011;22617;43.690;27.956;2023-05-10T00:06:23;8.53;;;5.03;;
18695;SDS011;22617;43.690;27.956;2023-05-10T00:11:32;7.87;;;5.17;;
18695;SDS011;22617;43.690;27.956;2023-05-10T00:16:37;9.20;;;5.10;;
18695;SDS011;22617;43.690;27.956;2023-05-10T00:21:44;7.00;;;4.47;;
18695;SDS011;22617;43.690;27.956;2023-05-10T00:26:48;7.47;;;4.90;;
18695;SDS011;22617;43.690;27.956;2023-05-10T00:31:53;9.50;;;5.40;;
18695;SDS011;22617;43.690;27.956;2023-05-10T00:36:59;5.93;;;4.33;;
18695;SDS011;22617;43.690;27.956;2023-05-10T00:42:03;9.40;;;5.90;;
18695;SDS011;22617;43.690;27.956;2023-05-10T00:47:08;8.17;;;5.43;;
18695;SDS011;22617;43.690;27.956;2023-05-10T00:52:15;7.87;;;5.20;;
18695;SDS011;22617;43.690;27.956;2023-05-10T00:57:19;9.83;;;6.10;;
18695;SDS011;22617;43.690;27.956;2023-05-10T01:02:24;12.33;;;6.90;;
18695;SDS011;22617;43.690;27.956;2023-05-10T01:07:33;9.90;;;5.77;;
18695;SDS011;22617;43.690;27.956;2023-05-10T01:12:38;10.73;;;6.37;;
18695;SDS011;22617;43.690;27.956;2023-05-10T01:17:45;10.03;;;5.53;;
18695;SDS011;22617;43.690;27.956;2023-05-10T01:23:09;11.57;;;6.47;;
18695;SDS011;22617;43.690;27.956;2023-05-10T01:34:12;9.47;;;6.57;;
18695;SDS011;22617;43.690;27.956;2023-05-10T01:39:24;12.60;;;7.17;;
18695;SDS011;22617;43.690;27.956;2023-05-10T01:44:33;12.87;;;6.97;;
18695;SDS011;22617;43.690;27.956;2023-05-10T01:49:43;10.40;;;6.10;;
18695;SDS011;22617;43.690;27.956;2023-05-10T01:54:53;6.93;;;4.70;;
18695;SDS011;22617;43.690;27.956;2023-05-10T02:00:05;6.57;;;4.60;;
18695;SDS011;22617;43.690;27.956;2023-05-10T02:05:17;6.00;;;4.33;;
18695;SDS011;22617;43.690;27.956;2023-05-10T02:10:23;5.53;;;4.20;;
18695;SDS011;22617;43.690;27.956;2023-05-10T02:15:28;6.43;;;4.60;;
18695;SDS011;22617;43.690;27.956;2023-05-10T02:20:36;6.27;;;4.60;;
18695;SDS011;22617;43.690;27.956;2023-05-10T02:25:43;5.60;;;4.10;;
18695;SDS011;22617;43.690;27.956;2023-05-10T02:30:48;4.83;;;3.90;;
18695;SDS011;22617;43.690;27.956;2023-05-10T02:35:55;7.07;;;4.67;;
18695;SDS011;22617;43.690;27.956;2023-05-10T02:41:01;5.33;;;4.17;;
18695;SDS011;22617;43.690;27.956;2023-05-10T02:46:08;6.87;;;4.80;;
18695;SDS011;22617;43.690;27.956;2023-05-10T02:51:14;7.87;;;4.73;;
18695;SDS011;22617;43.690;27.956;2023-05-10T02:56:23;5.63;;;4.43;;
18695;SDS011;22617;43.690;27.956;2023-05-10T03:01:32;6.03;;;4.80;;
18695;SDS011;22617;43.690;27.956;2023-05-10T03:06:38;6.30;;;4.60;;
18695;SDS011;22617;43.690;27.956;2023-05-10T03:11:47;5.90;;;4.60;;
18695;SDS011;22617;43.690;27.956;2023-05-10T03:16:59;5.97;;;4.27;;
18695;SDS011;22617;43.690;27.956;2023-05-10T03:22:11;6.10;;;4.63;;
18695;SDS011;22617;43.690;27.956;2023-05-10T03:27:22;5.63;;;4.43;;
18695;SDS011;22617;43.690;27.956;2023-05-10T03:32:28;7.33;;;5.53;;
18695;SDS011;22617;43.690;27.956;2023-05-10T03:37:37;5.73;;;4.40;;
18695;SDS011;22617;43.690;27.956;2023-05-10T03:42:41;6.20;;;4.73;;
18695;SDS011;22617;43.690;27.956;2023-05-10T03:47:45;5.43;;;4.47;;
18695;SDS011;22617;43.690;27.956;2023-05-10T03:52:52;4.80;;;4.30;;
18695;SDS011;22617;43.690;27.956;2023-05-10T03:57:57;4.00;;;3.60;;
18695;SDS011;22617;43.690;27.956;2023-05-10T04:03:01;4.13;;;3.73;;
18695;SDS011;22617;43.690;27.956;2023-05-10T04:08:07;3.20;;;2.90;;
18695;SDS011;22617;43.690;27.956;2023-05-10T04:13:11;4.80;;;4.03;;
18695;SDS011;22617;43.690;27.956;2023-05-10T04:18:16;4.03;;;3.60;;
18695;SDS011;22617;43.690;27.956;2023-05-10T04:23:21;6.07;;;3.90;;
18695;SDS011;22617;43.690;27.956;2023-05-10T04:28:25;7.83;;;5.70;;
18695;SDS011;22617;43.690;27.956;2023-05-10T04:33:30;7.40;;;4.70;;
18695;SDS011;22617;43.690;27.956;2023-05-10T04:38:37;6.60;;;5.07;;
18695;SDS011;22617;43.690;27.956;2023-05-10T04:43:41;7.17;;;4.87;;
18695;SDS011;22617;43.690;27.956;2023-05-10T04:48:45;7.70;;;5.40;;
18695;SDS011;22617;43.690;27.956;2023-05-10T04:53:52;8.97;;;5.80;;
18695;SDS011;22617;43.690;27.956;2023-05-10T04:59:07;12.13;;;6.27;;
18695;SDS011;22617;43.690;27.956;2023-05-10T05:04:11;12.23;;;7.50;;
18695;SDS011;22617;43.690;27.956;2023-05-10T05:09:18;11.53;;;6.77;;
18695;SDS011;22617;43.690;27.956;2023-05-10T05:14:21;10.23;;;7.33;;
18695;SDS011;22617;43.690;27.956;2023-05-10T05:19:27;12.43;;;7.80;;
18695;SDS011;22617;43.690;27.956;2023-05-10T05:24:36;11.77;;;7.17;;
18695;SDS011;22617;43.690;27.956;2023-05-10T05:29:40;9.87;;;6.03;;
18695;SDS011;22617;43.690;27.956;2023-05-10T05:34:44;9.20;;;5.37;;
18695;SDS011;22617;43.690;27.956;2023-05-10T05:39:50;9.47;;;5.83;;
18695;SDS011;22617;43.690;27.956;2023-05-10T05:44:56;7.23;;;4.97;;
18695;SDS011;22617;43.690;27.956;2023-05-10T05:50:01;9.97;;;4.13;;
18695;SDS011;22617;43.690;27.956;2023-05-10T05:55:08;6.70;;;4.67;;
18695;SDS011;22617;43.690;27.956;2023-05-10T06:00:13;6.13;;;4.20;;
18695;SDS011;22617;43.690;27.956;2023-05-10T06:05:20;6.70;;;4.40;;
18695;SDS011;22617;43.690;27.956;2023-05-10T06:10:26;7.67;;;4.87;;
18695;SDS011;22617;43.690;27.956;2023-05-10T06:15:32;9.97;;;4.30;;
18695;SDS011;22617;43.690;27.956;2023-05-10T06:20:36;6.83;;;4.40;;
18695;SDS011;22617;43.690;27.956;2023-05-10T06:25:44;5.80;;;4.00;;
18695;SDS011;22617;43.690;27.956;2023-05-10T06:30:48;7.83;;;4.07;;
18695;SDS011;22617;43.690;27.956;2023-05-10T06:35:53;7.97;;;4.30;;
18695;SDS011;22617;43.690;27.956;2023-05-10T06:40:59;10.20;;;3.90;;
18695;SDS011;22617;43.690;27.956;2023-05-10T06:46:03;4.47;;;3.60;;
18695;SDS011;22617;43.690;27.956;2023-05-10T06:51:09;12.20;;;4.00;;
18695;SDS011;22617;43.690;27.956;2023-05-10T06:56:16;8.80;;;4.83;;
18695;SDS011;22617;43.690;27.956;2023-05-10T07:01:27;17.33;;;4.77;;
18695;SDS011;22617;43.690;27.956;2023-05-10T07:06:32;8.27;;;4.33;;
18695;SDS011;22617;43.690;27.956;2023-05-10T07:11:39;10.93;;;4.40;;
18695;SDS011;22617;43.690;27.956;2023-05-10T07:16:56;5.83;;;3.67;;
18695;SDS011;22617;43.690;27.956;2023-05-10T07:22:15;7.43;;;4.00;;
18695;SDS011;22617;43.690;27.956;2023-05-10T07:27:27;5.10;;;3.90;;
18695;SDS011;22617;43.690;27.956;2023-05-10T07:32:37;8.60;;;3.53;;
18695;SDS011;22617;43.690;27.956;2023-05-10T07:37:45;6.67;;;3.33;;
18695;SDS011;22617;43.690;27.956;2023-05-10T07:43:03;5.70;;;3.43;;
18695;SDS011;22617;43.690;27.956;2023-05-10T07:48:10;8.47;;;3.60;;
18695;SDS011;22617;43.690;27.956;2023-05-10T07:53:16;141.13;;;12.63;;
18695;SDS011;22617;43.690;27.956;2023-05-10T07:58:25;20.73;;;5.33;;
18695;SDS011;22617;43.690;27.956;2023-05-10T08:03:33;17.77;;;4.27;;
18695;SDS011;22617;43.690;27.956;2023-05-10T08:08:45;7.43;;;4.30;;
18695;SDS011;22617;43.690;27.956;2023-05-10T08:13:55;9.47;;;3.80;;
18695;SDS011;22617;43.690;27.956;2023-05-10T08:19:03;7.17;;;3.07;;
18695;SDS011;22617;43.690;27.956;2023-05-10T08:24:12;4.30;;;3.10;;
18695;SDS011;22617;43.690;27.956;2023-05-10T08:29:20;8.93;;;3.13;;
18695;SDS011;22617;43.690;27.956;2023-05-10T08:34:32;4.10;;;3.00;;
18695;SDS011;22617;43.690;27.956;2023-05-10T08:39:38;5.00;;;3.10;;
18695;SDS011;22617;43.690;27.956;2023-05-10T08:44:46;5.10;;;3.20;;
18695;SDS011;22617;43.690;27.956;2023-05-10T08:49:56;5.20;;;3.10;;
18695;SDS011;22617;43.690;27.956;2023-05-10T08:55:03;14.53;;;3.30;;
18695;SDS011;22617;43.690;27.956;2023-05-10T09:00:11;5.87;;;3.13;;
18695;SDS011;22617;43.690;27.956;2023-05-10T09:05:20;5.00;;;2.80;;
18695;SDS011;22617;43.690;27.956;2023-05-10T09:10:26;5.47;;;3.23;;
18695;SDS011;22617;43.690;27.956;2023-05-10T09:15:33;5.97;;;3.47;;
18695;SDS011;22617;43.690;27.956;2023-05-10T09:20:39;6.43;;;3.00;;
18695;SDS011;22617;43.690;27.956;2023-05-10T09:25:46;4.40;;;2.77;;
18695;SDS011;22617;43.690;27.956;2023-05-10T09:30:55;6.87;;;3.17;;
18695;SDS011;22617;43.690;27.956;2023-05-10T09:36:11;6.27;;;2.90;;
18695;SDS011;22617;43.690;27.956;2023-05-10T09:41:21;15.10;;;5.30;;
18695;SDS011;22617;43.690;27.956;2023-05-10T09:46:28;5.77;;;3.43;;
18695;SDS011;22617;43.690;27.956;2023-05-10T09:51:34;5.57;;;3.80;;
18695;SDS011;22617;43.690;27.956;2023-05-10T09:56:39;3.53;;;2.50;;
18695;SDS011;22617;43.690;27.956;2023-05-10T10:01:50;4.10;;;2.50;;
18695;SDS011;22617;43.690;27.956;2023-05-10T10:07:01;23.05;;;6.53;;
18695;SDS011;22617;43.690;27.956;2023-05-10T10:12:09;3.93;;;2.30;;
18695;SDS011;22617;43.690;27.956;2023-05-10T10:17:17;4.97;;;2.63;;
18695;SDS011;22617;43.690;27.956;2023-05-10T10:22:26;8.52;;;3.17;;
18695;SDS011;22617;43.690;27.956;2023-05-10T10:27:34;6.07;;;2.67;;
18695;SDS011;22617;43.690;27.956;2023-05-10T10:32:54;5.00;;;2.70;;
18695;SDS011;22617;43.690;27.956;2023-05-10T10:38:21;3.58;;;2.80;;
18695;SDS011;22617;43.690;27.956;2023-05-10T10:43:26;5.97;;;2.80;;
18695;SDS011;22617;43.690;27.956;2023-05-10T10:48:33;6.68;;;2.55;;
18695;SDS011;22617;43.690;27.956;2023-05-10T10:53:37;2.40;;;1.90;;
18695;SDS011;22617;43.690;27.956;2023-05-10T10:58:49;6.10;;;2.53;;
18695;SDS011;22617;43.690;27.956;2023-05-10T11:09:30;7.00;;;2.97;;
18695;SDS011;22617;43.690;27.956;2023-05-10T11:14:43;4.37;;;2.10;;
18695;SDS011;22617;43.690;27.956;2023-05-10T11:20:10;3.00;;;2.53;;
18695;SDS011;22617;43.690;27.956;2023-05-10T11:25:26;4.82;;;2.97;;
18695;SDS011;22617;43.690;27.956;2023-05-10T11:36:09;10.80;;;4.37;;
18695;SDS011;22617;43.690;27.956;2023-05-10T11:41:19;3.15;;;2.20;;
18695;SDS011;22617;43.690;27.956;2023-05-10T11:46:36;4.03;;;2.80;;
18695;SDS011;22617;43.690;27.956;2023-05-10T11:51:53;2.87;;;1.97;;
18695;SDS011;22617;43.690;27.956;2023-05-10T11:57:10;17.70;;;4.40;;
18695;SDS011;22617;43.690;27.956;2023-05-10T12:02:15;3.90;;;2.63;;
18695;SDS011;22617;43.690;27.956;2023-05-10T12:07:23;8.97;;;4.00;;
18695;SDS011;22617;43.690;27.956;2023-05-10T12:12:35;3.10;;;2.50;;
18695;SDS011;22617;43.690;27.956;2023-05-10T12:17:45;5.38;;;2.65;;
18695;SDS011;22617;43.690;27.956;2023-05-10T12:22:52;7.30;;;2.63;;
18695;SDS011;22617;43.690;27.956;2023-05-10T12:28:02;4.88;;;2.60;;
18695;SDS011;22617;43.690;27.956;2023-05-10T12:33:11;4.47;;;2.50;;
18695;SDS011;22617;43.690;27.956;2023-05-10T12:38:28;8.07;;;3.55;;
18695;SDS011;22617;43.690;27.956;2023-05-10T12:43:34;6.20;;;2.83;;
18695;SDS011;22617;43.690;27.956;2023-05-10T12:48:42;4.05;;;2.65;;
18695;SDS011;22617;43.690;27.956;2023-05-10T12:53:50;5.10;;;2.70;;
18695;SDS011;22617;43.690;27.956;2023-05-10T12:58:54;8.30;;;3.15;;
18695;SDS011;22617;43.690;27.956;2023-05-10T13:03:58;5.00;;;2.63;;
18695;SDS011;22617;43.690;27.956;2023-05-10T13:15:32;8.40;;;3.30;;
18695;SDS011;22617;43.690;27.956;2023-05-10T13:21:30;3.50;;;2.73;;
18695;SDS011;22617;43.690;27.956;2023-05-10T13:27:55;6.30;;;3.60;;
18695;SDS011;22617;43.690;27.956;2023-05-10T13:38:42;5.33;;;3.20;;
18695;SDS011;22617;43.690;27.956;2023-05-10T13:49:45;5.47;;;3.00;;
18695;SDS011;22617;43.690;27.956;2023-05-10T13:55:07;3.05;;;2.50;;
18695;SDS011;22617;43.690;27.956;2023-05-10T14:01:41;3.77;;;2.60;;
18695;SDS011;22617;43.690;27.956;2023-05-10T14:20:49;9.13;;;3.70;;
18695;SDS011;22617;43.690;27.956;2023-05-10T14:25:52;12.17;;;4.67;;
18695;SDS011;22617;43.690;27.956;2023-05-10T14:30:56;5.90;;;3.00;;
18695;SDS011;22617;43.690;27.956;2023-05-10T14:36:02;4.10;;;2.63;;
18695;SDS011;22617;43.690;27.956;2023-05-10T14:41:06;8.07;;;3.47;;
18695;SDS011;22617;43.690;27.956;2023-05-10T14:46:12;5.60;;;2.57;;
18695;SDS011;22617;43.690;27.956;2023-05-10T14:51:17;7.57;;;3.23;;
18695;SDS011;22617;43.690;27.956;2023-05-10T14:56:23;12.80;;;3.90;;
18695;SDS011;22617;43.690;27.956;2023-05-10T15:01:27;4.73;;;2.80;;
18695;SDS011;22617;43.690;27.956;2023-05-10T15:06:33;8.53;;;3.70;;
18695;SDS011;22617;43.690;27.956;2023-05-10T15:11:37;3.30;;;2.90;;
18695;SDS011;22617;43.690;27.956;2023-05-10T15:16:41;10.00;;;4.03;;
18695;SDS011;22617;43.690;27.956;2023-05-10T15:21:46;9.43;;;4.20;;
18695;SDS011;22617;43.690;27.956;2023-05-10T15:26:49;6.67;;;3.37;;
18695;SDS011;22617;43.690;27.956;2023-05-10T15:31:53;4.80;;;2.90;;
18695;SDS011;22617;43.690;27.956;2023-05-10T15:36:58;5.10;;;3.13;;
18695;SDS011;22617;43.690;27.956;2023-05-10T15:42:02;9.63;;;3.97;;
18695;SDS011;22617;43.690;27.956;2023-05-10T15:47:05;10.77;;;4.37;;
18695;SDS011;22617;43.690;27.956;2023-05-10T15:52:10;8.90;;;3.33;;
18695;SDS011;22617;43.690;27.956;2023-05-10T15:57:14;13.23;;;3.53;;
18695;SDS011;22617;43.690;27.956;2023-05-10T16:02:18;17.07;;;4.07;;
18695;SDS011;22617;43.690;27.956;2023-05-10T16:07:25;4.70;;;2.87;;
18695;SDS011;22617;43.690;27.956;2023-05-10T16:12:28;8.53;;;3.70;;
18695;SDS011;22617;43.690;27.956;2023-05-10T16:17:32;9.00;;;3.43;;
18695;SDS011;22617;43.690;27.956;2023-05-10T16:22:39;6.87;;;2.83;;
18695;SDS011;22617;43.690;27.956;2023-05-10T16:27:45;12.20;;;4.43;;
18695;SDS011;22617;43.690;27.956;2023-05-10T16:32:48;7.43;;;3.43;;
18695;SDS011;22617;43.690;27.956;2023-05-10T16:37:53;12.33;;;4.20;;
18695;SDS011;22617;43.690;27.956;2023-05-10T16:42:57;6.13;;;3.27;;
18695;SDS011;22617;43.690;27.956;2023-05-10T16:48:00;9.53;;;3.57;;
18695;SDS011;22617;43.690;27.956;2023-05-10T16:53:06;11.37;;;3.90;;
18695;SDS011;22617;43.690;27.956;2023-05-10T16:58:09;10.57;;;4.10;;
18695;SDS011;22617;43.690;27.956;2023-05-10T17:03:13;5.83;;;3.30;;
18695;SDS011;22617;43.690;27.956;2023-05-10T17:08:19;4.70;;;3.53;;
18695;SDS011;22617;43.690;27.956;2023-05-10T17:13:23;8.50;;;4.63;;
18695;SDS011;22617;43.690;27.956;2023-05-10T17:18:27;7.13;;;3.43;;
18695;SDS011;22617;43.690;27.956;2023-05-10T17:23:32;9.30;;;4.03;;
18695;SDS011;22617;43.690;27.956;2023-05-10T17:28:37;7.30;;;3.70;;
18695;SDS011;22617;43.690;27.956;2023-05-10T17:33:41;4.60;;;3.40;;
18695;SDS011;22617;43.690;27.956;2023-05-10T17:38:46;7.83;;;3.10;;
18695;SDS011;22617;43.690;27.956;2023-05-10T17:43:50;6.90;;;3.63;;
18695;SDS011;22617;43.690;27.956;2023-05-10T17:48:55;6.87;;;3.50;;
18695;SDS011;22617;43.690;27.956;2023-05-10T17:54:00;9.73;;;3.27;;
18695;SDS011;22617;43.690;27.956;2023-05-10T17:59:04;7.97;;;4.13;;
18695;SDS011;22617;43.690;27.956;2023-05-10T18:04:08;6.43;;;3.50;;
18695;SDS011;22617;43.690;27.956;2023-05-10T18:09:13;5.53;;;3.63;;
18695;SDS011;22617;43.690;27.956;2023-05-10T18:14:19;7.97;;;4.23;;
18695;SDS011;22617;43.690;27.956;2023-05-10T18:19:40;5.57;;;3.63;;
18695;SDS011;22617;43.690;27.956;2023-05-10T18:25:00;7.03;;;3.70;;
18695;SDS011;22617;43.690;27.956;2023-05-10T18:30:05;7.80;;;4.10;;
18695;SDS011;22617;43.690;27.956;2023-05-10T18:35:11;7.00;;;3.87;;
18695;SDS011;22617;43.690;27.956;2023-05-10T18:40:16;6.83;;;3.67;;
18695;SDS011;22617;43.690;27.956;2023-05-10T18:45:21;5.57;;;3.97;;
18695;SDS011;22617;43.690;27.956;2023-05-10T18:50:24;5.53;;;3.83;;
18695;SDS011;22617;43.690;27.956;2023-05-10T18:55:29;6.97;;;4.20;;
18695;SDS011;22617;43.690;27.956;2023-05-10T19:00:33;7.40;;;4.43;;
18695;SDS011;22617;43.690;27.956;2023-05-10T19:05:36;8.17;;;4.40;;
18695;SDS011;22617;43.690;27.956;2023-05-10T19:10:41;7.90;;;4.20;;
18695;SDS011;22617;43.690;27.956;2023-05-10T19:15:45;8.30;;;4.17;;
18695;SDS011;22617;43.690;27.956;2023-05-10T19:20:49;9.37;;;4.43;;
18695;SDS011;22617;43.690;27.956;2023-05-10T19:25:58;8.37;;;4.33;;
18695;SDS011;22617;43.690;27.956;2023-05-10T19:31:02;7.43;;;4.37;;
18695;SDS011;22617;43.690;27.956;2023-05-10T19:36:06;8.83;;;5.30;;
18695;SDS011;22617;43.690;27.956;2023-05-10T19:41:12;5.90;;;4.43;;
18695;SDS011;22617;43.690;27.956;2023-05-10T19:46:15;9.13;;;4.10;;
18695;SDS011;22617;43.690;27.956;2023-05-10T19:51:21;8.43;;;4.53;;
18695;SDS011;22617;43.690;27.956;2023-05-10T19:56:25;7.00;;;4.90;;
18695;SDS011;22617;43.690;27.956;2023-05-10T20:01:30;8.00;;;4.23;;
18695;SDS011;22617;43.690;27.956;2023-05-10T20:06:33;7.87;;;4.40;;
18695;SDS011;22617;43.690;27.956;2023-05-10T20:11:38;7.43;;;4.70;;
18695;SDS011;22617;43.690;27.956;2023-05-10T20:16:42;8.80;;;4.47;;
18695;SDS011;22617;43.690;27.956;2023-05-10T20:21:46;6.90;;;4.43;;
18695;SDS011;22617;43.690;27.956;2023-05-10T20:26:51;5.90;;;4.40;;
18695;SDS011;22617;43.690;27.956;2023-05-10T20:31:55;6.80;;;4.03;;
18695;SDS011;22617;43.690;27.956;2023-05-10T20:36:59;10.17;;;6.37;;
18695;SDS011;22617;43.690;27.956;2023-05-10T20:42:04;10.40;;;6.37;;
18695;SDS011;22617;43.690;27.956;2023-05-10T20:47:08;9.33;;;5.27;;
18695;SDS011;22617;43.690;27.956;2023-05-10T20:52:12;8.50;;;5.20;;
18695;SDS011;22617;43.690;27.956;2023-05-10T20:57:17;10.80;;;5.23;;
18695;SDS011;22617;43.690;27.956;2023-05-10T21:02:21;7.47;;;5.10;;
18695;SDS011;22617;43.690;27.956;2023-05-10T21:07:25;12.47;;;6.57;;
18695;SDS011;22617;43.690;27.956;2023-05-10T21:12:30;13.53;;;6.37;;
18695;SDS011;22617;43.690;27.956;2023-05-10T21:17:34;8.80;;;5.03;;
18695;SDS011;22617;43.690;27.956;2023-05-10T21:22:37;8.20;;;4.60;;
18695;SDS011;22617;43.690;27.956;2023-05-10T21:27:42;10.87;;;4.70;;
18695;SDS011;22617;43.690;27.956;2023-05-10T21:32:46;10.07;;;4.43;;
18695;SDS011;22617;43.690;27.956;2023-05-10T21:37:50;8.80;;;4.50;;
18695;SDS011;22617;43.690;27.956;2023-05-10T21:42:55;11.90;;;4.50;;
18695;SDS011;22617;43.690;27.956;2023-05-10T21:47:58;7.07;;;4.90;;
18695;SDS011;22617;43.690;27.956;2023-05-10T21:53:02;6.60;;;4.23;;
18695;SDS011;22617;43.690;27.956;2023-05-10T21:58:07;10.57;;;4.27;;
18695;SDS011;22617;43.690;27.956;2023-05-10T22:03:11;7.30;;;4.50;;
18695;SDS011;22617;43.690;27.956;2023-05-10T22:08:15;9.03;;;4.43;;
18695;SDS011;22617;43.690;27.956;2023-05-10T22:13:20;8.00;;;4.20;;
18695;SDS011;22617;43.690;27.956;2023-05-10T22:18:23;5.87;;;4.00;;
18695;SDS011;22617;43.690;27.956;2023-05-10T22:23:27;6.67;;;3.87;;
18695;SDS011;22617;43.690;27.956;2023-05-10T22:28:32;7.63;;;4.43;;
18695;SDS011;22617;43.690;27.956;2023-05-10T22:33:35;8.27;;;4.00;;
18695;SDS011;22617;43.690;27.956;2023-05-10T22:38:40;8.73;;;4.87;;
18695;SDS011;22617;43.690;27.956;2023-05-10T22:43:45;8.67;;;5.13;;
18695;SDS011;22617;43.690;27.956;2023-05-10T22:48:49;7.63;;;5.40;;
18695;SDS011;22617;43.690;27.956;2023-05-10T22:53:53;7.20;;;4.63;;
18695;SDS011;22617;43.690;27.956;2023-05-10T22:58:58;6.87;;;4.50;;
18695;SDS011;22617;43.690;27.956;2023-05-10T23:04:01;10.43;;;4.60;;
18695;SDS011;22617;43.690;27.956;2023-05-10T23:09:05;7.73;;;4.20;;
18695;SDS011;22617;43.690;27.956;2023-05-10T23:14:11;5.70;;;4.20;;
18695;SDS011;22617;43.690;27.956;2023-05-10T23:19:14;7.57;;;4.03;;
18695;SDS011;22617;43.690;27.956;2023-05-10T23:24:18;6.80;;;4.63;;
18695;SDS011;22617;43.690;27.956;2023-05-10T23:29:23;7.07;;;4.13;;
18695;SDS011;22617;43.690;27.956;2023-05-10T23:34:27;7.73;;;3.83;;
18695;SDS011;22617;43.690;27.956;2023-05-10T23:39:30;6.83;;;3.67;;
18695;SDS011;22617;43.690;27.956;2023-05-10T23:44:36;6.43;;;3.93;;
18695;SDS011;22617;43.690;27.956;2023-05-10T23:49:39;5.23;;;3.57;;
18695;SDS011;22617;43.690;27.956;2023-05-10T23:54:43;7.00;;;4.50;;
18695;SDS011;22617;43.690;27.956;2023-05-10T23:59:48;8.77;;;4.70;;
